logo
Search for airport 
image banner adimage banner adimage banner ad
image banner ad

FWMC - Mchinji

Located in Mchinji, Malawi

ICAO - FWMC, IATA -

Data provided by Airmate  

General information

Coordinates: S13°48'0" E32°54'0"
Elevation is 3901 feet MSL.
 
View others Airports in Mchinji

Operational data

Special qualification required
Current time UTC:
Current local time:
Weather at : FLCP - Chipata ( 43 km )
TAF: TAF FLCP 221000Z 2212/2318 VRB03KT 9999 FEW040 BECMG 2216/2218 CAVOK BECMG 2308/2310 SCT025 BECMG 2312/2314 16005KT SCT040
View NOTAMs / SUP AIP / TFR affecting this airport [VIEW]
Communications frequencies: [VIEW]

Runways:

RWY identifierQFULength (ft)Width (ft)SurfaceLDA (ft)
1500UNK
3300UNK

Airport contact information

Address: Mchinji Malawi

Satellite view of FWMC